Time;durP1;ratioP1;P1;durP2;ratioP2;P2;SDS_P1;SDS_P2;PMS_P1;PMS_P2;Temp;Humidity;BMP_temperature;BMP_pressure;BME280_temperature;BME280_humidity;BME280_pressure;Samples;Min_cycle;Max_cycle;Signal;HPM_P1;HPM_P2
2022/05/11 00:01:32;;;;;;;;;7.00;6.00;;;;;38.43;18.87;100976.19;5057487;28;47103;-84
2022/05/11 00:03:59;;;;;;;;;5.33;5.00;;;;;38.24;18.36;100946.63;5057472;28;45761;-84
2022/05/11 00:06:26;;;;;;;;;7.33;7.33;;;;;38.39;19.05;100983.06;5075747;28;45422;-84
2022/05/11 00:08:56;;;;;;;;;7.00;6.00;;;;;38.21;19.20;100960.75;5057716;28;45321;-85
2022/05/11 00:11:23;;;;;;;;;7.33;6.67;;;;;38.17;18.48;100961.16;5075601;28;46279;-87
2022/05/11 00:13:49;;;;;;;;;9.33;6.67;;;;;38.04;18.60;100945.72;5058075;28;46102;-87
2022/05/11 00:16:15;;;;;;;;;6.67;6.67;;;;;37.77;18.61;100920.66;5057072;28;45430;-87
2022/05/11 00:22:02;;;;;;;;;7.33;6.33;;;;;37.98;18.66;100939.91;5012286;28;45659;-79
2022/05/11 00:24:28;;;;;;;;;5.00;5.00;;;;;38.05;18.88;100968.75;5015348;28;45399;-80
2022/05/11 00:26:53;;;;;;;;;7.33;6.00;;;;;37.86;18.63;100937.28;4997969;28;45284;-80
2022/05/11 00:29:18;;;;;;;;;7.67;7.67;;;;;37.89;18.63;100956.38;4997584;28;45396;-80
2022/05/11 00:31:44;;;;;;;;;8.67;5.67;;;;;37.82;19.28;100949.66;5015176;28;45346;-80
2022/05/11 00:34:09;;;;;;;;;8.00;8.00;;;;;37.78;18.86;100950.06;5015376;28;45272;-80
2022/05/11 00:36:35;;;;;;;;;6.00;6.00;;;;;37.80;19.37;100940.59;5015205;28;45689;-80
2022/05/11 00:39:01;;;;;;;;;7.00;6.00;;;;;37.71;18.88;100927.63;5030950;28;45429;-80
2022/05/11 00:41:26;;;;;;;;;6.00;6.00;;;;;37.48;19.13;100902.94;5015022;28;47643;-79
2022/05/11 00:43:55;;;;;;;;;7.00;6.00;;;;;37.48;19.39;100896.53;5015358;28;45400;-80
2022/05/11 00:46:35;;;;;;;;;6.00;6.00;;;;;37.81;19.63;100939.59;5015398;28;45447;-80
2022/05/11 00:51:58;;;;;;;;;7.00;6.00;;;;;37.67;19.20;100915.06;5015255;28;45380;-80
2022/05/11 00:54:28;;;;;;;;;5.33;5.00;;;;;37.65;19.28;100911.56;5014950;28;45300;-80
2022/05/11 00:56:59;;;;;;;;;7.67;6.00;;;;;37.80;19.73;100940.59;5015250;28;45416;-80
2022/05/11 00:59:31;;;;;;;;;6.00;6.00;;;;;37.68;19.77;100912.16;4997403;28;45517;-80
2022/05/11 01:02:03;;;;;;;;;7.00;7.00;;;;;37.69;19.76;100913.03;5013695;28;47055;-80
2022/05/11 01:04:32;;;;;;;;;8.67;4.33;;;;;37.67;20.08;100910.41;5014620;28;45344;-80
2022/05/11 01:06:58;;;;;;;;;6.00;5.00;;;;;37.73;19.32;100914.47;5015176;28;45419;-80
2022/05/11 01:09:23;;;;;;;;;10.67;8.00;;;;;37.72;19.72;100905.31;5014870;28;45570;-78
2022/05/11 01:11:57;;;;;;;;;7.00;7.00;;;;;37.51;19.75;100866.69;5014668;28;46232;-79
2022/05/11 01:14:27;;;;;;;;;7.00;7.00;;;;;37.55;19.38;100876.47;5014926;28;45360;-80
2022/05/11 01:16:55;;;;;;;;;6.67;6.33;;;;;37.53;19.98;100872.06;5013840;28;45313;-80
2022/05/11 01:19:39;;;;;;;;;8.00;8.00;;;;;37.74;19.84;100903.28;5014746;28;45423;-80
2022/05/11 01:22:10;;;;;;;;;8.67;7.33;;;;;37.70;19.83;100899.03;5014482;28;45429;-80
2022/05/11 01:24:45;;;;;;;;;5.00;5.00;;;;;37.70;19.75;100889.88;4996985;28;45383;-80
2022/05/11 01:27:39;;;;;;;;;7.00;6.33;;;;;37.61;20.28;100893.47;5015018;28;45297;-80
2022/05/11 01:30:12;;;;;;;;;6.67;5.33;;;;;37.61;20.09;100896.25;5014771;28;45646;-80
2022/05/11 01:32:39;;;;;;;;;4.67;4.67;;;;;37.27;19.58;100842.16;4996529;28;45525;-80
2022/05/11 01:35:07;;;;;;;;;8.00;7.00;;;;;37.53;20.09;100889.53;4999572;28;46205;-80
2022/05/11 01:37:40;;;;;;;;;7.00;7.00;;;;;37.40;19.74;100869.59;5000332;28;45487;-80
2022/05/11 01:40:06;;;;;;;;;8.00;8.00;;;;;37.27;19.96;100861.53;5018184;28;45432;-80
2022/05/11 01:42:31;;;;;;;;;6.33;6.33;;;;;37.11;20.24;100822.47;5018014;28;46308;-80
2022/05/11 01:44:56;;;;;;;;;6.33;6.00;;;;;37.23;20.35;100848.97;5017639;28;45481;-80
2022/05/11 01:47:22;;;;;;;;;6.00;6.00;;;;;37.24;20.58;100859.03;5017886;28;45600;-80
2022/05/11 01:49:47;;;;;;;;;8.00;8.00;;;;;37.30;19.67;100876.97;5018022;28;45509;-80
2022/05/11 01:52:12;;;;;;;;;10.33;8.33;;;;;37.31;19.82;100874.06;5000041;28;48334;-79
2022/05/11 01:54:38;;;;;;;;;6.00;6.00;;;;;37.18;19.60;100868.75;5017877;28;45554;-80
2022/05/11 01:57:03;;;;;;;;;8.33;8.33;;;;;37.06;19.76;100848.66;5032984;28;45514;-79
2022/05/11 01:59:29;;;;;;;;;8.00;7.00;;;;;37.17;19.59;100866.16;5018087;28;45453;-80
2022/05/11 02:01:54;;;;;;;;;7.00;7.00;;;;;37.19;19.62;100875.19;5017180;28;45529;-80
2022/05/11 02:12:17;;;;;;;;;7.00;7.00;;;;;37.31;19.61;100884.28;4672697;22;47530;-79
2022/05/11 02:14:42;;;;;;;;;8.33;5.67;;;;;37.20;20.00;100879.69;5050715;28;45330;-79
2022/05/11 02:17:07;;;;;;;;;8.33;6.33;;;;;37.29;19.80;100878.88;5019713;28;45514;-80
2022/05/11 02:19:33;;;;;;;;;7.67;6.33;;;;;37.25;20.14;100891.22;5049065;28;45539;-77
2022/05/11 02:21:58;;;;;;;;;6.00;6.00;;;;;37.05;20.10;100851.56;5057220;28;45486;-79
2022/05/11 02:24:23;;;;;;;;;7.67;7.67;;;;;37.05;19.98;100852.44;5039209;28;45479;-79
2022/05/11 02:26:49;;;;;;;;;6.00;5.00;;;;;37.02;19.99;100851.81;5056087;28;45817;-79
2022/05/11 02:29:14;;;;;;;;;6.00;6.00;;;;;37.25;19.90;100888.44;5019268;28;47215;-80
2022/05/11 02:31:40;;;;;;;;;8.67;6.67;;;;;37.01;20.09;100839.91;5037123;28;45425;-79
2022/05/11 02:34:06;;;;;;;;;7.00;7.00;;;;;37.12;20.12;100868.44;5036990;28;45492;-77
2022/05/11 02:36:33;;;;;;;;;8.00;7.00;;;;;37.12;19.67;100866.56;5037302;28;45484;-79
2022/05/11 02:38:58;;;;;;;;;6.00;6.00;;;;;37.19;20.36;100876.06;5019347;28;45538;-79
2022/05/11 02:41:24;;;;;;;;;7.67;7.67;;;;;37.09;20.48;100861.34;5036468;28;45370;-80
2022/05/11 02:43:49;;;;;;;;;6.33;6.00;;;;;37.10;20.42;100865.81;5019324;28;46142;-78
2022/05/11 02:46:15;;;;;;;;;7.00;7.00;;;;;37.16;20.55;100875.44;5038641;28;45347;-77
2022/05/11 02:48:40;;;;;;;;;10.00;9.00;;;;;36.99;20.61;100843.81;5039002;28;45617;-78
2022/05/11 02:51:07;;;;;;;;;7.67;7.67;;;;;37.12;20.42;100866.56;5056860;28;46362;-77
2022/05/11 02:53:33;;;;;;;;;8.67;8.33;;;;;37.07;20.28;100852.28;5056938;28;45398;-79
2022/05/11 02:55:59;;;;;;;;;4.33;4.00;;;;;37.15;20.55;100866.28;5056479;28;45255;-80
2022/05/11 02:58:27;;;;;;;;;6.00;6.00;;;;;37.04;20.54;100860.88;5057028;28;45441;-80
2022/05/11 03:00:55;;;;;;;;;7.00;7.00;;;;;36.77;20.65;100820.03;5056525;28;47144;-80
2022/05/11 03:03:21;;;;;;;;;12.00;9.67;;;;;36.87;20.23;100840.31;5056861;28;45330;-80
2022/05/11 03:05:48;;;;;;;;;5.00;5.00;;;;;36.86;20.18;100853.22;5056657;28;45300;-80
2022/05/11 03:08:14;;;;;;;;;7.67;7.67;;;;;36.86;20.47;100860.66;5038697;28;45434;-80
2022/05/11 03:10:40;;;;;;;;;9.33;7.67;;;;;36.68;20.32;100843.81;5037591;28;48068;-80
2022/05/11 03:13:07;;;;;;;;;8.00;8.00;;;;;36.73;20.73;100860.88;5035980;28;45470;-80
2022/05/11 03:15:32;;;;;;;;;8.67;7.33;;;;;36.70;20.59;100863.91;5018820;28;45455;-80
2022/05/11 03:17:58;;;;;;;;;8.67;8.67;;;;;36.49;20.52;100837.19;5018707;28;45344;-79
2022/05/11 03:20:25;;;;;;;;;8.33;7.00;;;;;36.65;20.57;100856.03;5018553;28;47520;-80
2022/05/11 03:22:51;;;;;;;;;7.00;7.00;;;;;36.69;20.88;100862.16;5036547;28;45356;-80
2022/05/11 03:25:17;;;;;;;;;6.33;6.33;;;;;36.67;21.00;100859.53;5036066;28;45533;-79
2022/05/11 03:27:43;;;;;;;;;9.00;8.00;;;;;36.56;21.12;100846.69;5036463;28;45331;-79
2022/05/11 03:30:09;;;;;;;;;9.33;8.33;;;;;36.38;20.72;100806.88;5018368;28;48128;-80
2022/05/11 03:35:19;;;;;;;;;8.00;8.00;;;;;36.56;20.92;100837.53;5036301;28;45463;-80
2022/05/11 03:37:45;;;;;;;;;7.67;7.67;;;;;36.40;20.90;100824.22;5018079;28;45415;-80
2022/05/11 03:40:10;;;;;;;;;9.00;9.00;;;;;36.39;20.38;100820.56;5035719;28;46107;-80
2022/05/11 03:42:37;;;;;;;;;8.67;8.67;;;;;36.56;20.69;100860.50;5036033;28;45355;-80
2022/05/11 03:45:07;;;;;;;;;10.00;8.67;;;;;36.53;20.54;100858.00;5036070;28;45407;-80
2022/05/11 03:47:32;;;;;;;;;7.67;7.00;;;;;36.60;20.89;100854.69;5024040;28;45273;-80
2022/05/11 03:49:57;;;;;;;;;7.67;7.00;;;;;36.53;20.33;100829.50;5015937;28;46513;-80
2022/05/11 03:52:23;;;;;;;;;10.33;8.33;;;;;36.60;20.80;100841.75;5015837;28;48399;-80
2022/05/11 03:54:48;;;;;;;;;6.67;6.67;;;;;36.53;20.48;100822.09;5015864;28;45384;-78
2022/05/11 03:57:13;;;;;;;;;9.00;9.00;;;;;36.60;20.70;100825.19;5014994;28;45507;-77
2022/05/11 03:59:39;;;;;;;;;5.67;5.67;;;;;36.58;20.27;100824.44;4997960;28;46692;-77
2022/05/11 04:02:04;;;;;;;;;7.00;7.00;;;;;36.59;20.96;100815.13;5015799;28;45506;-80
2022/05/11 04:04:29;;;;;;;;;9.00;7.00;;;;;36.68;20.77;100838.28;5016029;28;45557;-80
2022/05/11 04:06:55;;;;;;;;;9.00;8.00;;;;;36.64;20.47;100842.34;5015631;28;45374;-78
2022/05/11 04:09:20;;;;;;;;;12.00;8.00;;;;;36.28;20.87;100781.94;5015572;28;45454;-80
2022/05/11 04:11:46;;;;;;;;;9.00;7.00;;;;;36.51;20.59;100826.91;5015352;28;45328;-80
2022/05/11 04:14:11;;;;;;;;;8.00;7.00;;;;;36.46;20.72;100812.59;5037438;28;45394;-79
2022/05/11 04:16:37;;;;;;;;;9.33;9.33;;;;;36.62;20.58;100841.63;5055823;28;45546;-79
2022/05/11 04:19:02;;;;;;;;;9.00;9.00;;;;;36.53;21.04;100843.34;5037319;28;47178;-76
2022/05/11 04:21:27;;;;;;;;;11.67;10.33;;;;;36.47;21.31;100849.38;5055214;28;45437;-73
2022/05/11 04:23:53;;;;;;;;;10.00;9.67;;;;;36.42;21.15;100860.00;5055593;28;45542;-73
2022/05/11 04:26:18;;;;;;;;;9.67;8.33;;;;;36.16;21.06;100850.22;5055628;28;45602;-75
2022/05/11 04:28:43;;;;;;;;;9.00;9.00;;;;;36.18;21.18;100866.66;5055603;28;46356;-73
2022/05/11 04:31:12;;;;;;;;;10.00;9.33;;;;;36.22;21.24;100859.84;5055284;28;45466;-74
2022/05/11 04:33:37;;;;;;;;;12.67;12.00;;;;;36.02;21.53;100853.28;5055716;28;45390;-73
2022/05/11 04:36:04;;;;;;;;;12.33;9.67;;;;;35.99;21.70;100860.00;5055299;28;45548;-73
2022/05/11 04:38:29;;;;;;;;;10.33;9.33;;;;;35.84;21.30;100844.75;5055414;28;45630;-73
2022/05/11 04:40:55;;;;;;;;;11.33;10.00;;;;;36.01;21.29;100868.13;5055329;28;45331;-73
2022/05/11 04:43:20;;;;;;;;;9.67;9.67;;;;;35.91;21.42;100854.25;5037085;28;45347;-73
2022/05/11 04:45:47;;;;;;;;;7.67;7.00;;;;;35.92;21.53;100868.91;5055302;28;45405;-76
2022/05/11 04:48:17;;;;;;;;;10.00;9.67;;;;;35.91;21.71;100861.63;5055323;28;45588;-73
2022/05/11 04:50:44;;;;;;;;;12.33;10.00;;;;;35.91;21.69;100868.06;5054766;28;45405;-73
2022/05/11 04:53:11;;;;;;;;;11.33;9.00;;;;;35.90;21.68;100866.28;5055088;28;45417;-73
2022/05/11 04:55:37;;;;;;;;;14.00;12.00;;;;;35.84;21.60;100862.19;5055537;28;45451;-75
2022/05/11 04:58:04;;;;;;;;;13.00;11.33;;;;;35.81;21.80;100865.22;5037041;28;47115;-75
2022/05/11 05:00:30;;;;;;;;;14.33;14.33;;;;;35.90;21.76;100855.25;5055148;28;45601;-73
2022/05/11 05:02:55;;;;;;;;;12.00;10.33;;;;;35.96;21.60;100863.00;5055231;28;45593;-69
2022/05/11 05:05:21;;;;;;;;;12.33;11.00;;;;;36.01;21.76;100852.44;5044247;28;45531;-69
2022/05/11 05:07:46;;;;;;;;;14.00;14.00;;;;;36.01;21.70;100862.63;5035895;28;46707;-69
2022/05/11 05:10:13;;;;;;;;;10.00;10.00;;;;;36.01;21.59;100859.84;5038724;28;45538;-68
2022/05/11 05:12:41;;;;;;;;;13.33;13.00;;;;;36.18;21.60;100862.00;5038117;28;45370;-69
2022/05/11 05:15:07;;;;;;;;;15.00;14.33;;;;;36.29;21.53;100857.41;5036781;28;45262;-69
2022/05/11 05:17:33;;;;;;;;;16.33;12.33;;;;;36.25;21.44;100855.94;5037804;28;46565;-69
2022/05/11 05:19:58;;;;;;;;;16.00;14.00;;;;;36.26;21.83;100843.84;5019036;28;45522;-69
2022/05/11 05:22:24;;;;;;;;;15.00;14.00;;;;;36.44;21.35;100853.31;5037488;28;45623;-68
2022/05/11 05:24:49;;;;;;;;;16.00;16.00;;;;;36.52;21.61;100852.63;5018257;28;45309;-68
2022/05/11 05:27:17;;;;;;;;;17.33;16.67;;;;;36.48;21.58;100856.69;5037255;28;45303;-68
2022/05/11 05:32:27;;;;;;;;;17.00;17.00;;;;;36.68;21.48;100852.09;5030455;28;45422;-71
2022/05/11 05:34:53;;;;;;;;;21.33;19.00;;;;;36.72;21.75;100851.72;5009766;28;45582;-68
2022/05/11 05:37:19;;;;;;;;;21.00;18.67;;;;;36.72;21.44;100854.47;5017741;28;45970;-68
2022/05/11 05:39:46;;;;;;;;;19.67;18.00;;;;;36.75;21.36;100867.13;5028739;28;45523;-68
2022/05/11 05:42:19;;;;;;;;;21.00;21.00;;;;;36.80;20.96;100864.88;5020065;28;45400;-68
2022/05/11 05:44:45;;;;;;;;;24.00;22.33;;;;;36.70;21.52;100850.09;5033112;28;45565;-68
2022/05/11 05:47:15;;;;;;;;;22.33;21.33;;;;;36.51;21.23;100840.72;5028116;28;46004;-88
2022/05/11 05:49:41;;;;;;;;;23.00;21.00;;;;;36.29;21.48;100843.59;5019381;28;45865;-83
2022/05/11 05:52:07;;;;;;;;;22.33;21.33;;;;;36.16;21.63;100854.84;5037273;28;45417;-87
2022/05/11 05:54:38;;;;;;;;;23.00;23.00;;;;;36.11;21.74;100858.03;5018756;28;45545;-88
2022/05/11 05:57:04;;;;;;;;;25.67;24.00;;;;;35.79;21.95;100813.88;5036211;28;46418;-88
2022/05/11 05:59:29;;;;;;;;;30.33;26.33;;;;;35.74;21.80;100822.56;5036155;28;45430;-87
2022/05/11 06:01:54;;;;;;;;;26.33;24.00;;;;;35.68;22.13;100847.91;5019290;28;45820;-87
2022/05/11 06:04:20;;;;;;;;;24.33;23.00;;;;;35.43;22.37;100797.63;5018585;28;45519;-87
2022/05/11 06:06:45;;;;;;;;;24.33;21.67;;;;;35.65;22.09;100812.31;5018728;28;47186;-87
2022/05/11 06:09:10;;;;;;;;;26.00;23.00;;;;;36.00;22.03;100882.94;5019562;28;45965;-87
2022/05/11 06:11:37;;;;;;;;;24.33;22.00;;;;;36.06;21.74;100868.59;5037533;28;45593;-87
2022/05/11 06:14:03;;;;;;;;;22.00;22.00;;;;;35.97;21.70;100859.22;5019872;28;45573;-88
2022/05/11 06:16:29;;;;;;;;;20.00;18.33;;;;;35.71;21.62;100818.19;5019801;28;48492;-87
2022/05/11 06:18:54;;;;;;;;;20.33;20.33;;;;;35.65;22.09;100818.69;5036600;28;45575;-87
2022/05/11 06:21:20;;;;;;;;;25.67;23.67;;;;;35.80;22.06;100855.13;5019393;28;45355;-87
2022/05/11 06:23:45;;;;;;;;;29.00;24.00;;;;;35.93;21.73;100870.69;5019774;28;45446;-87
2022/05/11 06:26:12;;;;;;;;;19.50;18.50;;;;;35.91;21.95;100857.00;5019581;28;47286;-86
2022/05/11 06:28:40;;;;;;;;;22.67;21.00;;;;;36.05;21.87;100875.13;5019664;28;46087;-86
2022/05/11 06:31:06;;;;;;;;;26.00;25.00;;;;;35.82;21.58;100808.97;5019585;28;45334;-87
2022/05/11 06:33:33;;;;;;;;;24.00;23.00;;;;;35.93;21.70;100820.97;5019090;28;45429;-87
2022/05/11 06:35:59;;;;;;;;;25.33;22.33;;;;;36.06;21.32;100810.59;5019371;28;48079;-87
2022/05/11 06:38:24;;;;;;;;;18.33;17.00;;;;;36.41;20.90;100834.25;5019100;28;45794;-87
2022/05/11 06:40:49;;;;;;;;;20.67;17.33;;;;;36.15;20.84;100782.19;5019765;28;45431;-87
2022/05/11 06:43:15;;;;;;;;;17.33;17.33;;;;;36.72;20.87;100870.16;5019791;28;45443;-87
2022/05/11 06:45:41;;;;;;;;;18.33;18.33;;;;;36.28;21.00;100806.81;5019157;28;47092;-87
2022/05/11 06:48:07;;;;;;;;;18.67;18.67;;;;;36.32;20.27;100824.03;5018968;28;45578;-87
2022/05/11 06:50:32;;;;;;;;;17.67;16.33;;;;;35.94;20.45;100782.19;5019131;28;45359;-84
2022/05/11 06:52:57;;;;;;;;;20.67;19.00;;;;;36.13;20.56;100827.50;5019296;28;45426;-87
2022/05/11 07:00:51;;;;;;;;;18.67;15.67;;;;;36.05;21.02;100817.16;5036584;28;45558;-82
2022/05/11 07:03:17;;;;;;;;;18.67;17.67;;;;;36.28;20.87;100836.34;5036031;28;45436;-81
2022/05/11 07:05:43;;;;;;;;;16.00;16.00;;;;;36.65;20.45;100860.69;5033367;28;45433;-72
2022/05/11 07:08:09;;;;;;;;;16.33;15.00;;;;;36.87;20.16;100855.00;5033523;28;45394;-72
2022/05/11 07:10:42;;;;;;;;;19.33;16.33;;;;;36.83;19.44;100842.47;5035192;28;45285;-71
2022/05/11 07:13:07;;;;;;;;;13.00;12.00;;;;;36.86;20.23;100846.84;5034264;28;45439;-77
2022/05/11 07:15:33;;;;;;;;;17.33;13.67;;;;;36.87;20.20;100841.16;5015762;28;46267;-76
2022/05/11 07:18:00;;;;;;;;;11.33;11.00;;;;;36.91;19.53;100850.06;4998235;28;45486;-75
2022/05/11 07:20:30;;;;;;;;;10.00;10.00;;;;;36.80;19.25;100848.28;5016188;28;45309;-76
2022/05/11 07:22:56;;;;;;;;;9.67;9.67;;;;;36.68;19.66;100830.00;5013722;28;45464;-76
2022/05/11 07:25:24;;;;;;;;;12.00;10.33;;;;;36.75;19.50;100850.53;5035586;28;45623;-76
2022/05/11 07:27:51;;;;;;;;;10.00;10.00;;;;;36.69;19.80;100829.84;5032252;28;45399;-76
2022/05/11 07:30:21;;;;;;;;;10.00;10.00;;;;;36.98;19.11;100842.09;5031346;28;45482;-75
2022/05/11 07:32:46;;;;;;;;;7.00;7.00;;;;;36.96;19.28;100844.09;5020155;28;45545;-75
2022/05/11 07:35:11;;;;;;;;;11.00;11.00;;;;;37.08;19.02;100845.75;5034847;28;46190;-76
2022/05/11 07:37:38;;;;;;;;;7.00;7.00;;;;;36.89;18.48;100857.59;5015902;28;45448;-76
2022/05/11 07:40:06;;;;;;;;;8.33;8.00;;;;;36.85;18.39;100856.13;5031735;28;45301;-75
2022/05/11 07:42:31;;;;;;;;;5.67;4.67;;;;;36.80;18.41;100847.41;5008560;28;45356;-75
2022/05/11 07:44:57;;;;;;;;;7.00;7.00;;;;;36.78;18.86;100832.81;5032992;28;46398;-75
2022/05/11 07:47:23;;;;;;;;;8.00;8.00;;;;;36.82;18.63;100845.38;5031238;28;45470;-75
2022/05/11 07:49:49;;;;;;;;;5.00;5.00;;;;;36.94;17.79;100860.84;5028187;28;45383;-75
2022/05/11 07:52:14;;;;;;;;;5.00;5.00;;;;;36.64;17.22;100818.38;5034287;28;45382;-74
2022/05/11 07:54:40;;;;;;;;;5.33;4.33;;;;;36.83;16.88;100842.47;5030834;28;45595;-75
2022/05/11 07:59:57;;;;;;;;;3.00;3.00;;;;;36.16;16.58;100857.59;5032751;28;45489;-75
2022/05/11 08:02:29;;;;;;;;;4.33;2.33;;;;;36.01;16.43;100840.53;5033365;28;45392;-78
2022/05/11 08:05:00;;;;;;;;;2.67;2.67;;;;;36.12;16.68;100858.88;5032844;28;45549;-77
2022/05/11 08:07:29;;;;;;;;;4.67;4.00;;;;;35.88;16.66;100822.25;5031399;28;45447;-77
2022/05/11 08:10:00;;;;;;;;;2.00;2.00;;;;;35.94;16.70;100825.50;5018549;28;45510;-79
2022/05/11 08:12:26;;;;;;;;;3.00;3.00;;;;;35.84;16.03;100795.94;5023350;28;45640;-79
2022/05/11 08:14:52;;;;;;;;;3.00;3.00;;;;;36.06;16.16;100827.16;5035424;28;46288;-79
2022/05/11 08:17:31;;;;;;;;;4.00;4.00;;;;;35.96;16.28;100845.56;5061013;28;45421;-79
2022/05/11 08:19:57;;;;;;;;;2.33;2.33;;;;;35.92;16.81;100828.38;5050857;28;45528;-77
2022/05/11 08:22:24;;;;;;;;;2.00;2.00;;;;;35.70;16.15;100819.19;5053515;28;45585;-78
2022/05/11 08:24:51;;;;;;;;;2.67;2.00;;;;;36.04;16.17;100843.88;5053050;28;45653;-78
2022/05/11 08:27:20;;;;;;;;;4.00;3.00;;;;;35.54;16.28;100794.81;5054121;28;45474;-79
2022/05/11 08:35:14;;;;;;;;;3.33;3.33;;;;;35.68;16.38;100857.09;5048701;28;45827;-79
2022/05/11 08:37:39;;;;;;;;;3.00;3.00;;;;;35.75;16.37;100835.34;5053755;28;45525;-81
2022/05/11 08:40:05;;;;;;;;;3.00;3.00;;;;;36.02;16.89;100858.81;5054742;28;45377;-80
2022/05/11 08:42:33;;;;;;;;;3.00;3.00;;;;;35.68;16.23;100812.03;5053242;28;45363;-81
2022/05/11 08:45:01;;;;;;;;;3.33;3.33;;;;;35.42;16.03;100798.63;5055582;28;45436;-79
2022/05/11 08:47:36;;;;;;;;;4.33;4.33;;;;;35.64;16.33;100857.47;5036426;28;45430;-80
2022/05/11 08:50:22;;;;;;;;;2.00;2.00;;;;;35.70;16.27;100857.81;5055859;28;45418;-80
2022/05/11 08:52:53;;;;;;;;;2.33;2.33;;;;;36.08;16.07;100871.22;5037506;28;45371;-80
2022/05/11 08:55:41;;;;;;;;;3.00;3.00;;;;;36.39;16.07;100861.16;5057296;28;46324;-80
2022/05/11 08:58:17;;;;;;;;;3.00;3.00;;;;;36.61;15.97;100854.56;5049525;28;45529;-80
2022/05/11 09:00:44;;;;;;;;;4.00;4.00;;;;;36.56;16.02;100819.03;5039287;28;45472;-80
2022/05/11 09:03:31;;;;;;;;;2.33;2.33;;;;;36.65;16.49;100860.69;5055020;28;45281;-77
2022/05/11 09:05:58;;;;;;;;;2.00;2.00;;;;;36.61;16.07;100832.47;5053755;28;47570;-79
2022/05/11 09:08:25;;;;;;;;;3.00;3.00;;;;;36.39;16.21;100828.00;5037783;28;45521;-80
2022/05/11 09:10:51;;;;;;;;;3.33;3.33;;;;;36.02;16.12;100775.97;5056497;28;45544;-78
2022/05/11 09:13:18;;;;;;;;;4.00;4.00;;;;;36.32;15.93;100860.81;5056360;28;45442;-80
2022/05/11 09:15:55;;;;;;;;;5.00;4.00;;;;;36.21;16.13;100839.63;5054144;28;46273;-78
2022/05/11 09:18:42;;;;;;;;;4.00;4.00;;;;;36.76;16.08;100856.97;5037682;28;45510;-79
2022/05/11 09:21:24;;;;;;;;;3.33;3.33;;;;;36.80;16.61;100859.34;5049785;28;45462;-79
2022/05/11 09:24:20;;;;;;;;;2.00;2.00;;;;;37.07;15.93;100855.91;5055631;28;45682;-79
2022/05/11 09:26:58;;;;;;;;;4.00;4.00;;;;;37.10;15.76;100854.75;5034298;28;46183;-79
2022/05/11 09:29:37;;;;;;;;;3.00;2.00;;;;;36.03;15.44;100745.50;5056822;28;45463;-78
2022/05/11 09:32:25;;;;;;;;;1.00;0.33;;;;;35.76;15.54;100825.19;5057333;28;45437;-78
2022/05/11 09:34:50;;;;;;;;;3.00;3.00;;;;;36.04;15.43;100845.78;5057206;28;45557;-78
2022/05/11 09:37:35;;;;;;;;;1.67;0.33;;;;;36.18;15.10;100828.84;5056318;28;45458;-78
2022/05/11 09:40:16;;;;;;;;;2.33;2.33;;;;;36.37;15.28;100802.38;5051968;28;45341;-78
2022/05/11 09:42:58;;;;;;;;;7.00;6.00;;;;;36.88;15.89;100853.97;5053647;28;45403;-78
2022/05/11 09:45:43;;;;;;;;;3.00;3.00;;;;;37.23;15.36;100863.69;5057062;28;45389;-78
2022/05/11 09:48:21;;;;;;;;;3.00;3.00;;;;;36.78;15.86;100842.00;5056100;28;46091;-78
2022/05/11 09:50:53;;;;;;;;;3.33;3.33;;;;;37.13;15.33;100854.50;5031502;28;46200;-78
2022/05/11 09:53:35;;;;;;;;;4.00;4.00;;;;;37.16;14.97;100853.31;5056796;28;45352;-80
2022/05/11 09:56:32;;;;;;;;;3.67;3.00;;;;;37.25;14.38;100858.88;5049510;28;45489;-80
2022/05/11 09:59:49;;;;;;;;;4.50;2.50;;;;;36.57;13.97;100837.38;5054212;28;45633;-82
2022/05/11 10:02:40;;;;;;;;;4.00;4.00;;;;;37.07;14.31;100846.75;4978448;28;46001;-80
2022/05/11 10:05:31;;;;;;;;;3.00;2.00;;;;;37.11;14.38;100853.75;4987271;28;45408;-80
2022/05/11 10:08:01;;;;;;;;;2.00;2.00;;;;;37.10;14.26;100852.00;4985526;28;45470;-80
2022/05/11 10:10:27;;;;;;;;;2.00;2.00;;;;;37.29;14.12;100842.91;4989045;28;45615;-80
2022/05/11 10:12:56;;;;;;;;;2.00;2.00;;;;;37.23;13.13;100811.13;5004736;28;45424;-80
2022/05/11 10:24:16;;;;;;;;;3.00;3.00;;;;;37.57;14.51;100852.25;5014077;28;45356;-80
2022/05/11 10:27:15;;;;;;;;;3.33;2.67;;;;;37.78;14.19;100842.97;5013003;28;45458;-81
2022/05/11 10:29:49;;;;;;;;;3.00;3.00;;;;;37.92;15.01;100845.28;4995543;28;45598;-81
2022/05/11 10:32:35;;;;;;;;;1.00;1.00;;;;;37.58;14.30;100842.94;5012320;28;45470;-78
2022/05/11 10:35:22;;;;;;;;;2.00;2.00;;;;;37.29;14.16;100833.75;5035908;28;45492;-80
2022/05/11 10:38:04;;;;;;;;;3.00;1.00;;;;;37.63;13.45;100825.88;5015125;28;45547;-80
2022/05/11 10:40:48;;;;;;;;;2.33;2.33;;;;;37.67;13.70;100845.88;5032629;28;45564;-80
2022/05/11 10:43:46;;;;;;;;;0.75;0.75;;;;;37.58;13.79;100842.94;5035474;28;45506;-80
2022/05/11 10:46:36;;;;;;;;;0.67;0.00;;;;;37.66;14.08;100833.03;5017112;28;45591;-79
2022/05/11 10:49:22;;;;;;;;;3.33;2.00;;;;;37.70;14.51;100846.44;5035388;28;45490;-79
2022/05/11 10:51:59;;;;;;;;;3.00;1.67;;;;;37.92;14.02;100844.44;5033042;28;45383;-79
2022/05/11 10:54:40;;;;;;;;;2.00;2.00;;;;;37.89;14.21;100820.66;5031818;28;47076;-80
2022/05/11 10:57:16;;;;;;;;;2.00;2.00;;;;;37.83;14.78;100829.53;5036487;28;45538;-81
2022/05/11 11:00:07;;;;;;;;;3.25;2.00;;;;;38.18;14.53;100813.31;5014437;28;45428;-82
2022/05/11 11:03:20;;;;;;;;;2.00;1.00;;;;;38.30;14.75;100825.13;5032902;28;45306;-83
2022/05/11 11:09:04;;;;;;;;;2.67;2.67;;;;;38.68;15.34;100820.47;5034055;28;45323;-84
2022/05/11 11:11:50;;;;;;;;;2.33;2.33;;;;;38.63;15.03;100814.50;5014317;28;45625;-83
2022/05/11 11:14:26;;;;;;;;;5.00;4.00;;;;;38.50;15.46;100790.78;5013352;28;45540;-84
2022/05/11 11:16:52;;;;;;;;;2.00;2.00;;;;;38.39;15.16;100804.81;5032560;28;46530;-83
2022/05/11 11:19:18;;;;;;;;;2.00;2.00;;;;;38.04;15.11;100798.03;5016988;28;45482;-83
2022/05/11 11:21:44;;;;;;;;;2.33;2.00;;;;;38.22;15.73;100785.19;5033885;28;45533;-84
2022/05/11 11:24:22;;;;;;;;;2.00;2.00;;;;;38.25;14.97;100773.78;5027642;28;45456;-83
2022/05/11 11:26:54;;;;;;;;;2.00;2.00;;;;;38.36;15.68;100794.06;5032920;28;46355;-83
2022/05/11 11:29:24;;;;;;;;;4.33;3.00;;;;;38.60;15.53;100810.13;5032645;28;45435;-83
2022/05/11 11:31:59;;;;;;;;;1.00;1.00;;;;;38.65;15.13;100798.56;5014621;28;45472;-83
2022/05/11 11:34:27;;;;;;;;;2.00;2.00;;;;;38.55;15.07;100784.75;5014955;28;45586;-84
2022/05/11 11:36:54;;;;;;;;;2.67;2.33;;;;;38.40;15.76;100799.13;5033950;28;46218;-83
2022/05/11 11:39:44;;;;;;;;;3.00;3.00;;;;;38.80;15.48;100790.66;5035284;28;45393;-83
2022/05/11 11:42:10;;;;;;;;;3.33;3.33;;;;;38.34;15.23;100772.03;5021706;28;45298;-84
2022/05/11 11:44:41;;;;;;;;;4.25;2.25;;;;;38.22;15.53;100787.97;5022909;28;45634;-84
2022/05/11 11:47:42;;;;;;;;;2.00;2.00;;;;;38.74;15.61;100781.94;5029009;28;45487;-83
2022/05/11 11:50:33;;;;;;;;;1.75;1.75;;;;;38.29;15.39;100751.34;4934643;28;45662;-84
2022/05/11 11:53:09;;;;;;;;;2.00;2.00;;;;;38.21;15.55;100732.66;4933470;28;45378;-84
2022/05/11 11:55:35;;;;;;;;;1.75;1.75;;;;;38.63;15.57;100770.16;4918312;28;45508;-78
2022/05/11 11:58:23;;;;;;;;;1.00;1.00;;;;;38.45;15.71;100746.00;4933936;28;45517;-79
2022/05/11 12:00:49;;;;;;;;;1.75;1.00;;;;;38.48;15.87;100787.25;4931223;28;45582;-78
2022/05/11 12:03:19;;;;;;;;;4.00;2.00;;;;;37.92;15.96;100715.13;4916964;28;45500;-76
2022/05/11 12:05:52;;;;;;;;;2.00;2.00;;;;;38.70;15.39;100768.53;4928746;28;45951;-75
2022/05/11 12:16:56;;;;;;;;;3.00;2.00;;;;;39.41;15.54;100780.75;4952964;28;45377;-76
2022/05/11 12:19:26;;;;;;;;;1.00;1.00;;;;;38.99;15.64;100773.00;4953102;28;46463;-76
2022/05/11 12:22:04;;;;;;;;;2.50;1.00;;;;;39.34;15.24;100783.31;4934603;28;45625;-77
2022/05/11 12:24:31;;;;;;;;;3.25;2.00;;;;;39.28;14.84;100770.94;4954801;28;45351;-77
2022/05/11 12:27:01;;;;;;;;;2.00;2.00;;;;;39.10;15.47;100747.81;5034575;28;45597;-77
2022/05/11 12:32:24;;;;;;;;;2.33;1.67;;;;;38.94;15.78;100754.94;5034407;28;45466;-77